| time (UTC) | temp F | wind direction | speed MPH | gust MPH | rain 1hr in | rain 24hr in | rain mn in | humidity % | barometer mb |
| 20260507030646 | 47 | 331 | 0.0 | 0.0 | 0.00 | 0.00 | 0.00 | 51 | |
| 20260507030146 | 47 | 331 | 0.0 | 0.0 | 0.00 | 0.00 | 0.00 | 50 | |
| 20260507025646 | 47 | 331 | 0.0 | 3.0 | 0.00 | 0.00 | 0.00 | 49 | |
| 20260507025146 | 47 | 272 | 0.0 | 3.0 | 0.00 | 0.00 | 0.00 | 49 | |
| 20260507024646 | 47 | 299 | 2.0 | 2.0 | 0.00 | 0.00 | 0.00 | 48 | |
| 20260507024146 | 47 | 254 | 0.0 | 2.0 | 0.00 | 0.00 | 0.00 | 48 | |
| 20260507023646 | 48 | 306 | 0.0 | 5.0 | 0.00 | 0.00 | 0.00 | 48 | |
| 20260507023146 | 48 | 299 | 0.0 | 4.0 | 0.00 | 0.00 | 0.00 | 47 | |
| 20260507022646 | 48 | 333 | 0.0 | 6.0 | 0.00 | 0.00 | 0.00 | 47 | |
| 20260507022146 | 48 | 278 | 3.0 | 6.0 | 0.00 | 0.00 | 0.00 | 47 | |
| 20260507021646 | 48 | 306 | 1.0 | 7.0 | 0.00 | 0.00 | 0.00 | 47 | |
| 20260507021146 | 48 | 303 | 3.0 | 6.0 | 0.00 | 0.00 | 0.00 | 48 | |
| 20260507020646 | 48 | 306 | 2.0 | 5.0 | 0.00 | 0.00 | 0.00 | 48 | |
| 20260507020146 | 48 | 303 | 3.0 | 6.0 | 0.00 | 0.00 | 0.00 | 48 | |
| 20260507015646 | 48 | 355 | 0.0 | 5.0 | 0.00 | 0.00 | 0.00 | 48 | |
| 20260507015146 | 48 | 296 | 5.0 | 7.0 | 0.00 | 0.00 | 0.00 | 48 | |
| 20260507014646 | 48 | 292 | 3.0 | 5.0 | 0.00 | 0.00 | 0.00 | 48 | |
| 20260507014146 | 49 | 296 | 3.0 | 5.0 | 0.00 | 0.00 | 0.00 | 48 | |
| 20260507013646 | 49 | 326 | 0.0 | 5.0 | 0.00 | 0.00 | 0.00 | 47 | |
| 20260507013146 | 49 | 307 | 1.0 | 6.0 | 0.00 | 0.00 | 0.00 | 48 | |
| 20260507012646 | 49 | 277 | 6.0 | 6.0 | 0.00 | 0.00 | 0.00 | 48 | |
| 20260507012146 | 49 | 282 | 0.0 | 5.0 | 0.00 | 0.00 | 0.00 | 47 | |
| 20260507011646 | 49 | 310 | 2.0 | 6.0 | 0.00 | 0.00 | 0.00 | 47 | |
| 20260507011146 | 49 | 286 | 4.0 | 5.0 | 0.00 | 0.00 | 0.00 | 47 | |
| 20260507010646 | 49 | 288 | 1.0 | 5.0 | 0.00 | 0.00 | 0.00 | 46 | |
| 20260507010146 | 49 | 284 | 2.0 | 6.0 | 0.00 | 0.00 | 0.00 | 46 | |
| 20260507005646 | 49 | 306 | 3.0 | 7.0 | 0.00 | 0.00 | 0.00 | 45 | |
| 20260507005146 | 50 | 296 | 4.0 | 5.0 | 0.00 | 0.00 | 0.00 | 45 | |
| 20260507004646 | 49 | 267 | 4.0 | 7.0 | 0.00 | 0.00 | 0.00 | 46 | |
| 20260507004146 | 50 | 284 | 3.0 | 8.0 | 0.00 | 0.00 | 0.00 | 45 | |
| 20260507003646 | 50 | 296 | 4.0 | 8.0 | 0.00 | 0.00 | 0.00 | 44 | |
| 20260507003146 | 50 | 309 | 5.0 | 8.0 | 0.00 | 0.00 | 0.00 | 44 | |
| 20260507002646 | 50 | 292 | 2.0 | 9.0 | 0.00 | 0.00 | 0.00 | 43 | |
| 20260507002146 | 50 | 298 | 5.0 | 9.0 | 0.00 | 0.00 | 0.00 | 42 | |
| 20260507001646 | 51 | 281 | 1.0 | 9.0 | 0.00 | 0.00 | 0.00 | 43 | |
| 20260507001146 | 50 | 312 | 5.0 | 12.0 | 0.00 | 0.00 | 0.00 | 42 | |
| 20260507000646 | 50 | 310 | 6.0 | 9.0 | 0.00 | 0.00 | 0.00 | 41 | |
| 20260507000146 | 51 | 312 | 2.0 | 11.0 | 0.00 | 0.00 | 0.00 | 41 | |
| 20260506235646 | 51 | 313 | 2.0 | 6.0 | 0.00 | 0.00 | 0.00 | 42 | |
| 20260506235146 | 51 | 292 | 3.0 | 8.0 | 0.00 | 0.00 | 0.00 | 41 | |
| 20260506234646 | 51 | 320 | 3.0 | 11.0 | 0.00 | 0.00 | 0.00 | 41 | |
| 20260506234146 | 51 | 284 | 7.0 | 10.0 | 0.00 | 0.00 | 0.00 | 40 | |
| 20260506233646 | 51 | 299 | 4.0 | 11.0 | 0.00 | 0.00 | 0.00 | 41 | |
| 20260506233146 | 51 | 292 | 6.0 | 11.0 | 0.00 | 0.00 | 0.00 | 40 | |
| 20260506232646 | 52 | 306 | 6.0 | 11.0 | 0.00 | 0.00 | 0.00 | 40 | |
| 20260506232146 | 51 | 289 | 8.0 | 11.0 | 0.00 | 0.00 | 0.00 | 39 | |
| 20260506231646 | 51 | 291 | 7.0 | 11.0 | 0.00 | 0.00 | 0.00 | 39 | |
| 20260506231146 | 52 | 334 | 5.0 | 9.0 | 0.00 | 0.00 | 0.00 | 39 | |
| 20260506230646 | 52 | 265 | 2.0 | 10.0 | 0.00 | 0.00 | 0.00 | 40 | |
| 20260506230146 | 51 | 293 | 5.0 | 16.0 | 0.00 | 0.00 | 0.00 | 38 | |
| 20260506225646 | 51 | 288 | 8.0 | 14.0 | 0.00 | 0.00 | 0.00 | 38 | |
| 20260506225146 | 52 | 341 | 8.0 | 11.0 | 0.00 | 0.00 | 0.00 | 38 | |
| 20260506224646 | 52 | 320 | 5.0 | 13.0 | 0.00 | 0.00 | 0.00 | 37 | |
| 20260506224146 | 52 | 271 | 9.0 | 18.0 | 0.00 | 0.00 | 0.00 | 36 | |
| 20260506223646 | 53 | 338 | 4.0 | 14.0 | 0.00 | 0.00 | 0.00 | 38 | |
| 20260506223146 | 53 | 277 | 12.0 | 12.0 | 0.00 | 0.00 | 0.00 | 37 | |
| 20260506222647 | 53 | 270 | 6.0 | 12.0 | 0.00 | 0.00 | 0.00 | 37 | |
| 20260506222147 | 53 | 278 | 9.0 | 12.0 | 0.00 | 0.00 | 0.00 | 36 | |
| 20260506221646 | 53 | 268 | 10.0 | 14.0 | 0.00 | 0.00 | 0.00 | 35 | |
| 20260506221147 | 53 | 295 | 9.0 | 15.0 | 0.00 | 0.00 | 0.00 | 36 | |
| 20260506220647 | 52 | 305 | 12.0 | 18.0 | 0.00 | 0.00 | 0.00 | 36 | |
| 20260506220147 | 53 | 329 | 4.0 | 17.0 | 0.00 | 0.00 | 0.00 | 37 | |
| 20260506215647 | 53 | 323 | 9.0 | 15.0 | 0.00 | 0.00 | 0.00 | 36 | |
| 20260506215147 | 53 | 289 | 6.0 | 16.0 | 0.00 | 0.00 | 0.00 | 35 | |
| 20260506214647 | 53 | 309 | 8.0 | 18.0 | 0.00 | 0.00 | 0.00 | 35 | |
| 20260506214147 | 53 | 292 | 8.0 | 17.0 | 0.00 | 0.00 | 0.00 | 35 | |
| 20260506213647 | 53 | 1 | 11.0 | 13.0 | 0.00 | 0.00 | 0.00 | 35 | |
| 20260506213147 | 53 | 282 | 13.0 | 13.0 | 0.00 | 0.00 | 0.00 | 34 | |
| 20260506212647 | 53 | 257 | 6.0 | 17.0 | 0.00 | 0.00 | 0.00 | 34 | |
| 20260506212147 | 53 | 330 | 2.0 | 12.0 | 0.00 | 0.00 | 0.00 | 36 | |
| 20260506211647 | 52 | 15 | 5.0 | 15.0 | 0.00 | 0.00 | 0.00 | 38 | |
| 20260506211147 | 52 | 337 | 6.0 | 15.0 | 0.00 | 0.00 | 0.00 | 37 | |
| 20260506210647 | 52 | 300 | 12.0 | 13.0 | 0.00 | 0.00 | 0.00 | 36 | |
| 20260506210147 | 52 | 323 | 5.0 | 13.0 | 0.00 | 0.00 | 0.00 | 38 | |
| 20260506205647 | 52 | 320 | 13.0 | 17.0 | 0.00 | 0.00 | 0.00 | 34 | |
| 20260506205147 | 53 | 317 | 10.0 | 17.0 | 0.00 | 0.00 | 0.00 | 37 | |
| 20260506204647 | 52 | 319 | 11.0 | 13.0 | 0.00 | 0.00 | 0.00 | 36 | |
| 20260506204147 | 53 | 299 | 4.0 | 14.0 | 0.00 | 0.00 | 0.00 | 38 | |
| 20260506203647 | 52 | 299 | 9.0 | 15.0 | 0.00 | 0.00 | 0.00 | 36 | |
| 20260506203147 | 52 | 274 | 11.0 | 16.0 | 0.00 | 0.00 | 0.00 | 35 | |
| 20260506202647 | 53 | 268 | 10.0 | 20.0 | 0.00 | 0.00 | 0.00 | 35 | |
| 20260506202147 | 53 | 310 | 10.0 | 17.0 | 0.00 | 0.00 | 0.00 | 33 | |
| 20260506201647 | 53 | 248 | 15.0 | 15.0 | 0.00 | 0.00 | 0.00 | 39 | |
| 20260506201147 | 53 | 300 | 6.0 | 14.0 | 0.00 | 0.00 | 0.00 | 35 | |
| 20260506200647 | 53 | 270 | 1.0 | 14.0 | 0.00 | 0.00 | 0.00 | 36 | |
| 20260506200147 | 52 | 277 | 9.0 | 16.0 | 0.00 | 0.00 | 0.00 | 37 | |
| 20260506195647 | 53 | 270 | 6.0 | 17.0 | 0.00 | 0.00 | 0.00 | 35 | |
| 20260506195147 | 53 | 326 | 4.0 | 16.0 | 0.00 | 0.00 | 0.00 | 37 | |
| 20260506194647 | 53 | 288 | 3.0 | 17.0 | 0.00 | 0.00 | 0.00 | 39 | |
| 20260506194147 | 52 | 265 | 11.0 | 15.0 | 0.00 | 0.00 | 0.00 | 35 | |
| 20260506193647 | 53 | 317 | 6.0 | 11.0 | 0.00 | 0.00 | 0.00 | 39 | |
| 20260506193147 | 52 | 274 | 9.0 | 14.0 | 0.00 | 0.00 | 0.00 | 36 | |
| 20260506192647 | 53 | 279 | 6.0 | 12.0 | 0.00 | 0.00 | 0.00 | 37 | |
| 20260506192147 | 52 | 281 | 12.0 | 14.0 | 0.00 | 0.00 | 0.00 | 37 | |
| 20260506191647 | 52 | 265 | 13.0 | 20.0 | 0.00 | 0.00 | 0.00 | 35 | |
| 20260506191147 | 53 | 316 | 7.0 | 16.0 | 0.00 | 0.00 | 0.00 | 35 | |
| 20260506190647 | 52 | 302 | 4.0 | 17.0 | 0.00 | 0.00 | 0.00 | 35 | |
| 20260506190147 | 53 | 264 | 12.0 | 16.0 | 0.00 | 0.00 | 0.00 | 35 | |
| 20260506185647 | 53 | 265 | 13.0 | 16.0 | 0.00 | 0.00 | 0.00 | 36 | |
| 20260506185147 | 53 | 284 | 8.0 | 20.0 | 0.00 | 0.00 | 0.00 | 35 | |
| 20260506184647 | 53 | 268 | 8.0 | 19.0 | 0.00 | 0.00 | 0.00 | 35 | |
| 20260506184147 | 52 | 282 | 14.0 | 20.0 | 0.00 | 0.00 | 0.00 | 37 | |
| 20260506183647 | 51 | 291 | 10.0 | 18.0 | 0.00 | 0.00 | 0.00 | 39 | |
| 20260506183147 | 51 | 317 | 4.0 | 16.0 | 0.00 | 0.00 | 0.00 | 37 | |
| 20260506182647 | 51 | 320 | 14.0 | 19.0 | 0.00 | 0.00 | 0.00 | 37 | |
| 20260506182147 | 51 | 265 | 8.0 | 17.0 | 0.00 | 0.00 | 0.00 | 37 | |
| 20260506181647 | 51 | 315 | 9.0 | 16.0 | 0.00 | 0.00 | 0.00 | 37 | |
| 20260506181147 | 51 | 320 | 11.0 | 17.0 | 0.00 | 0.00 | 0.00 | 38 | |
| 20260506180647 | 51 | 317 | 9.0 | 17.0 | 0.00 | 0.00 | 0.00 | 40 | |
| 20260506180147 | 50 | 12 | 9.0 | 16.0 | 0.00 | 0.00 | 0.00 | 38 | |
| 20260506175647 | 51 | 337 | 5.0 | 17.0 | 0.00 | 0.00 | 0.00 | 40 | |
| 20260506175147 | 51 | 326 | 15.0 | 15.0 | 0.00 | 0.00 | 0.00 | 44 | |
| 20260506174647 | 51 | 351 | 7.0 | 17.0 | 0.00 | 0.00 | 0.00 | 40 | |
| 20260506174147 | 51 | 293 | 10.0 | 16.0 | 0.00 | 0.00 | 0.00 | 39 | |
| 20260506173647 | 51 | 270 | 7.0 | 11.0 | 0.00 | 0.00 | 0.00 | 38 | |
| 20260506173147 | 51 | 37 | 6.0 | 12.0 | 0.00 | 0.00 | 0.00 | 40 | |
| 20260506172647 | 51 | 305 | 10.0 | 12.0 | 0.00 | 0.00 | 0.00 | 41 | |
| 20260506172147 | 50 | 293 | 5.0 | 15.0 | 0.00 | 0.00 | 0.00 | 40 | |
| 20260506171647 | 51 | 286 | 4.0 | 12.0 | 0.00 | 0.00 | 0.00 | 39 | |
| 20260506171147 | 51 | 296 | 6.0 | 12.0 | 0.00 | 0.00 | 0.00 | 38 | |
| 20260506170647 | 50 | 261 | 12.0 | 12.0 | 0.00 | 0.00 | 0.00 | 40 | |
| 20260506170147 | 50 | 286 | 10.0 | 11.0 | 0.00 | 0.00 | 0.00 | 40 | |
| 20260506165647 | 50 | 306 | 6.0 | 10.0 | 0.00 | 0.00 | 0.00 | 41 | |
| 20260506165147 | 50 | 296 | 5.0 | 9.0 | 0.00 | 0.00 | 0.00 | 41 | |
| 20260506164647 | 50 | 345 | 5.0 | 11.0 | 0.00 | 0.00 | 0.00 | 41 | |
| 20260506164147 | 50 | 324 | 11.0 | 13.0 | 0.00 | 0.00 | 0.00 | 39 | |
| 20260506163647 | 52 | 343 | 7.0 | 7.0 | 0.00 | 0.00 | 0.00 | 44 | |
| 20260506163147 | 51 | 337 | 4.0 | 8.0 | 0.00 | 0.00 | 0.00 | 44 | |
| 20260506162647 | 50 | 284 | 2.0 | 12.0 | 0.00 | 0.00 | 0.00 | 44 | |
| 20260506162147 | 50 | 309 | 4.0 | 16.0 | 0.00 | 0.00 | 0.00 | 44 | |
| 20260506161647 | 49 | 0 | 2.0 | 14.0 | 0.00 | 0.00 | 0.00 | 41 | |
| 20260506161147 | 50 | 329 | 11.0 | 16.0 | 0.00 | 0.00 | 0.00 | 41 | |
| 20260506160647 | 50 | 303 | 1.0 | 10.0 | 0.00 | 0.00 | 0.00 | 40 | |
| 20260506160147 | 50 | 351 | 4.0 | 17.0 | 0.00 | 0.00 | 0.00 | 42 | |
| 20260506155647 | 49 | 337 | 7.0 | 13.0 | 0.00 | 0.00 | 0.00 | 42 | |
| 20260506155147 | 49 | 322 | 7.0 | 12.0 | 0.00 | 0.00 | 0.00 | 40 | |
| 20260506154647 | 49 | 288 | 8.0 | 15.0 | 0.00 | 0.00 | 0.00 | 41 | |
| 20260506154147 | 50 | 262 | 11.0 | 11.0 | 0.00 | 0.00 | 0.00 | 44 | |
| 20260506153647 | 50 | 279 | 5.0 | 9.0 | 0.00 | 0.00 | 0.00 | 43 | |
| 20260506153147 | 49 | 264 | 5.0 | 13.0 | 0.00 | 0.00 | 0.00 | 45 | |
| 20260506152647 | 50 | 279 | 6.0 | 7.0 | 0.00 | 0.00 | 0.00 | 44 | |
| 20260506152147 | 49 | 25 | 0.0 | 7.0 | 0.00 | 0.00 | 0.00 | 45 | |
| 20260506151647 | 50 | 298 | 0.0 | 7.0 | 0.00 | 0.00 | 0.00 | 45 | |
| 20260506151147 | 49 | 35 | 2.0 | 7.0 | 0.00 | 0.00 | 0.00 | 45 | |
| 20260506150647 | 49 | 358 | 0.0 | 12.0 | 0.00 | 0.00 | 0.00 | 45 | |
| 20260506150147 | 49 | 295 | 8.0 | 13.0 | 0.00 | 0.00 | 0.00 | 42 | |
| 20260506145647 | 49 | 49 | 0.0 | 3.0 | 0.00 | 0.00 | 0.00 | 48 | |
| 20260506145147 | 49 | 305 | 0.0 | 6.0 | 0.00 | 0.00 | 0.00 | 48 | |
| 20260506144647 | 48 | 330 | 0.0 | 6.0 | 0.00 | 0.00 | 0.00 | 49 | |
| 20260506144147 | 48 | 267 | 0.0 | 7.0 | 0.00 | 0.00 | 0.00 | 48 | |
| 20260506143648 | 49 | 1 | 4.0 | 8.0 | 0.00 | 0.00 | 0.00 | 48 | |
| 20260506143147 | 49 | 43 | 4.0 | 5.0 | 0.00 | 0.00 | 0.00 | 49 | |
| 20260506142647 | 49 | 126 | 2.0 | 2.0 | 0.00 | 0.00 | 0.00 | 51 | |
| 20260506142147 | 49 | 354 | 0.0 | 4.0 | 0.00 | 0.00 | 0.00 | 54 | |
| 20260506141647 | 49 | 195 | 3.0 | 6.0 | 0.00 | 0.00 | 0.00 | 55 | |
| 20260506141147 | 48 | 234 | 5.0 | 6.0 | 0.00 | 0.00 | 0.00 | 55 | |
| 20260506140647 | 48 | 203 | 6.0 | 6.0 | 0.00 | 0.00 | 0.00 | 57 | |
| 20260506140147 | 47 | 187 | 1.0 | 5.0 | 0.00 | 0.00 | 0.00 | 59 | |
| 20260506135647 | 47 | 135 | 5.0 | 5.0 | 0.00 | 0.00 | 0.00 | 60 | |
| 20260506135147 | 46 | 156 | 2.0 | 6.0 | 0.00 | 0.00 | 0.00 | 61 | |
| 20260506134647 | 46 | 153 | 3.0 | 6.0 | 0.00 | 0.00 | 0.00 | 62 | |
| 20260506134147 | 46 | 182 | 1.0 | 5.0 | 0.00 | 0.00 | 0.00 | 62 | |
| 20260506133647 | 46 | 147 | 5.0 | 5.0 | 0.00 | 0.00 | 0.00 | 63 | |
| 20260506133147 | 46 | 102 | 3.0 | 7.0 | 0.00 | 0.00 | 0.00 | 65 | |
| 20260506132647 | 45 | 203 | 1.0 | 6.0 | 0.00 | 0.00 | 0.00 | 65 | |
| 20260506132147 | 45 | 111 | 3.0 | 5.0 | 0.00 | 0.00 | 0.00 | 64 | |
| 20260506131647 | 44 | 165 | 2.0 | 5.0 | 0.00 | 0.00 | 0.00 | 67 | |
| 20260506131147 | 44 | 126 | 2.0 | 5.0 | 0.00 | 0.00 | 0.00 | 68 | |
| 20260506130647 | 43 | 39 | 4.0 | 5.0 | 0.00 | 0.00 | 0.00 | 70 | |
| 20260506130147 | 42 | 59 | 2.0 | 6.0 | 0.00 | 0.00 | 0.00 | 69 | |
| 20260506125647 | 42 | 39 | 3.0 | 4.0 | 0.00 | 0.00 | 0.00 | 70 | |
| 20260506125148 | 42 | 52 | 3.0 | 5.0 | 0.00 | 0.00 | 0.00 | 69 | |
| 20260506124647 | 42 | 63 | 3.0 | 5.0 | 0.00 | 0.00 | 0.00 | 69 | |
| 20260506124147 | 42 | 323 | 0.0 | 5.0 | 0.00 | 0.00 | 0.00 | 71 | |
| 20260506123647 | 42 | 147 | 4.0 | 6.0 | 0.00 | 0.00 | 0.00 | 71 | |
| 20260506123147 | 41 | 140 | 5.0 | 6.0 | 0.00 | 0.00 | 0.00 | 71 | |
| 20260506122647 | 41 | 116 | 3.0 | 6.0 | 0.00 | 0.00 | 0.00 | 72 |